Time;durP1;ratioP1;P1;durP2;ratioP2;P2;SDS_P1;SDS_P2;PMS_P1;PMS_P2;Temp;Humidity;BMP_temperature;BMP_pressure;BME280_temperature;BME280_humidity;BME280_pressure;Samples;Min_cycle;Max_cycle;Signal;HPM_P1;HPM_P2
2022/03/31 00:00:09;;;;;;;;;;;;;;;-139.48;100.00;61774.03;5021165;28;19920;-72
2022/03/31 00:02:55;;;;;;;;;;;;;;;-139.48;100.00;61774.03;5018219;28;19920;-72
2022/03/31 00:05:39;;;;;;;;;;;;;;;-139.48;100.00;61774.03;5033028;28;19923;-72
2022/03/31 00:08:23;;;;;;;;;;;;;;;-139.48;100.00;61774.03;5034398;28;20272;-72
2022/03/31 00:11:07;;;;;;;;;;;;;;;-139.48;100.00;61774.03;5021920;28;19927;-72
2022/03/31 00:13:50;;;;;;;;;;;;;;;-139.48;100.00;61774.03;5036681;28;19924;-72
2022/03/31 00:16:34;;;;;;;;;;;;;;;-139.48;100.00;61774.03;5021846;28;19939;-72
2022/03/31 00:19:19;;;;;;;;;;;;;;;-139.48;100.00;61774.03;5036731;28;20413;-72
2022/03/31 00:22:02;;;;;;;;;;;;;;;-139.48;100.00;61774.03;5021399;28;20396;-72
2022/03/31 00:24:46;;;;;;;;;;;;;;;-139.48;100.00;61774.03;5036341;28;19919;-72
2022/03/31 00:27:30;;;;;;;;;;;;;;;-139.48;100.00;61774.03;5021607;28;20008;-72
2022/03/31 00:30:14;;;;;;;;;;;;;;;-139.48;100.00;61774.03;5036486;28;19967;-72
2022/03/31 00:32:58;;;;;;;;;;;;;;;-139.48;100.00;61774.03;5021449;28;19920;-72
2022/03/31 00:35:42;;;;;;;;;;;;;;;-139.48;100.00;61774.03;5021569;28;20367;-72
2022/03/31 00:38:26;;;;;;;;;;;;;;;-139.48;100.00;61774.03;5036108;28;20023;-72
2022/03/31 00:41:10;;;;;;;;;;;;;;;-139.48;100.00;61774.03;5021367;28;19945;-73
2022/03/31 00:43:54;;;;;;;;;;;;;;;-139.48;100.00;61774.03;5036001;28;19920;-71
2022/03/31 00:46:45;;;;;;;;;;;;;;;-139.48;100.00;61774.03;5007526;28;20425;-72
2022/03/31 00:49:29;;;;;;;;;;;;;;;-139.48;100.00;61774.03;5007468;28;19924;-72
2022/03/31 00:52:13;;;;;;;;;;;;;;;-139.48;100.00;61774.03;5035863;28;19963;-72
2022/03/31 00:54:57;;;;;;;;;;;;;;;-139.48;100.00;61774.03;5035751;28;19923;-72
2022/03/31 00:57:44;;;;;;;;;;;;;;;-139.48;100.00;61774.03;5006935;28;20018;-72
2022/03/31 01:00:29;;;;;;;;;;;;;;;-139.48;100.00;61774.03;5035698;28;20042;-72
2022/03/31 01:03:13;;;;;;;;;;;;;;;-139.48;100.00;61774.03;5020990;28;19962;-72
2022/03/31 01:05:58;;;;;;;;;;;;;;;-139.48;100.00;61774.03;5006741;28;19975;-72
2022/03/31 01:08:42;;;;;;;;;;;;;;;-139.48;100.00;61774.03;5020906;28;19959;-72
2022/03/31 01:11:26;;;;;;;;;;;;;;;-139.48;100.00;61774.03;5035628;28;19963;-72
2022/03/31 01:14:10;;;;;;;;;;;;;;;-139.48;100.00;61774.03;5035365;28;19920;-72
2022/03/31 01:16:54;;;;;;;;;;;;;;;-139.48;100.00;61774.03;5020384;28;19920;-72
2022/03/31 01:19:37;;;;;;;;;;;;;;;-139.48;100.00;61774.03;5006450;28;19920;-72
2022/03/31 01:22:24;;;;;;;;;;;;;;;-139.48;100.00;61774.03;5035296;28;19920;-72
2022/03/31 01:25:09;;;;;;;;;;;;;;;-139.48;100.00;61774.03;5020256;28;19991;-72
2022/03/31 01:27:53;;;;;;;;;;;;;;;-139.48;100.00;61774.03;5035308;28;20352;-72
2022/03/31 01:30:37;;;;;;;;;;;;;;;-139.48;100.00;61774.03;5020342;28;20020;-72
2022/03/31 01:33:21;;;;;;;;;;;;;;;-139.48;100.00;61774.03;5035030;28;20335;-72
2022/03/31 01:36:05;;;;;;;;;;;;;;;-139.48;100.00;61774.03;5035639;28;20276;-71
2022/03/31 01:38:49;;;;;;;;;;;;;;;-139.48;100.00;61774.03;5020026;28;19974;-72
2022/03/31 01:41:33;;;;;;;;;;;;;;;-139.48;100.00;61774.03;5020228;28;19919;-72
2022/03/31 01:44:17;;;;;;;;;;;;;;;-139.48;100.00;61774.03;5020152;28;19924;-72
2022/03/31 01:47:01;;;;;;;;;;;;;;;-139.48;100.00;61774.03;5034794;28;19920;-72
2022/03/31 01:49:45;;;;;;;;;;;;;;;-139.48;100.00;61774.03;5035015;28;19924;-73
2022/03/31 01:52:29;;;;;;;;;;;;;;;-139.48;100.00;61774.03;5020103;28;19920;-73
2022/03/31 01:55:13;;;;;;;;;;;;;;;-139.48;100.00;61774.03;5019880;28;19959;-72
2022/03/31 01:57:57;;;;;;;;;;;;;;;-139.48;100.00;61774.03;5019642;28;20390;-72
2022/03/31 02:00:40;;;;;;;;;;;;;;;-139.48;100.00;61774.03;5034848;28;19920;-72
2022/03/31 02:03:25;;;;;;;;;;;;;;;-139.48;100.00;61774.03;5005888;28;19920;-72
2022/03/31 02:06:08;;;;;;;;;;;;;;;-139.48;100.00;61774.03;5019493;28;19920;-72
2022/03/31 02:08:52;;;;;;;;;;;;;;;-139.48;100.00;61774.03;5019906;28;19987;-72
2022/03/31 02:11:36;;;;;;;;;;;;;;;-139.48;100.00;61774.03;5034646;28;19986;-72
2022/03/31 02:14:20;;;;;;;;;;;;;;;-139.48;100.00;61774.03;5019170;28;20392;-72
2022/03/31 02:17:08;;;;;;;;;;;;;;;-139.48;100.00;61774.03;5034263;28;19920;-72
2022/03/31 02:19:51;;;;;;;;;;;;;;;-139.48;100.00;61774.03;5034506;28;19920;-73
2022/03/31 02:22:35;;;;;;;;;;;;;;;-139.48;100.00;61774.03;5034133;28;19959;-72
2022/03/31 02:25:20;;;;;;;;;;;;;;;-139.48;100.00;61774.03;5034106;28;20292;-71
2022/03/31 02:28:04;;;;;;;;;;;;;;;-139.48;100.00;61774.03;5019420;28;20047;-72
2022/03/31 02:30:48;;;;;;;;;;;;;;;-139.48;100.00;61774.03;5018939;28;20054;-72
2022/03/31 02:33:32;;;;;;;;;;;;;;;-139.48;100.00;61774.03;5005341;28;19920;-71
2022/03/31 02:36:16;;;;;;;;;;;;;;;-139.48;100.00;61774.03;5034282;28;20395;-72
2022/03/31 02:39:00;;;;;;;;;;;;;;;-139.48;100.00;61774.03;5033905;28;19919;-72
2022/03/31 02:41:44;;;;;;;;;;;;;;;-139.48;100.00;61774.03;5019250;28;20387;-72
2022/03/31 02:44:28;;;;;;;;;;;;;;;-139.48;100.00;61774.03;5019157;28;20015;-72
2022/03/31 02:47:12;;;;;;;;;;;;;;;-139.48;100.00;61774.03;5005197;28;20051;-72
2022/03/31 02:49:56;;;;;;;;;;;;;;;-139.48;100.00;61774.03;5033762;28;19924;-72
2022/03/31 02:55:46;;;;;;;;;;;;;;;-139.48;100.00;61774.03;5021814;28;20402;-72
2022/03/31 02:58:30;;;;;;;;;;;;;;;-139.48;100.00;61774.03;5019048;28;19963;-72
2022/03/31 03:01:14;;;;;;;;;;;;;;;-139.48;100.00;61774.03;5018816;28;19919;-72
2022/03/31 03:03:59;;;;;;;;;;;;;;;-139.48;100.00;61774.03;5019063;28;19920;-72
2022/03/31 03:06:43;;;;;;;;;;;;;;;-139.48;100.00;61774.03;5033926;28;19958;-73
2022/03/31 03:09:27;;;;;;;;;;;;;;;-139.48;100.00;61774.03;5018857;28;20442;-72
2022/03/31 03:12:10;;;;;;;;;;;;;;;-139.48;100.00;61774.03;5033553;28;19963;-72
2022/03/31 03:14:54;;;;;;;;;;;;;;;-139.48;100.00;61774.03;5034489;28;19920;-72
2022/03/31 03:17:42;;;;;;;;;;;;;;;-139.48;100.00;61774.03;5033516;28;19924;-72
2022/03/31 03:20:26;;;;;;;;;;;;;;;-139.48;100.00;61774.03;5018553;28;19920;-72
2022/03/31 03:23:10;;;;;;;;;;;;;;;-139.48;100.00;61774.03;5033389;28;19920;-72
2022/03/31 03:25:54;;;;;;;;;;;;;;;-139.48;100.00;61774.03;5033460;28;19919;-72
2022/03/31 03:28:38;;;;;;;;;;;;;;;-139.48;100.00;61774.03;5033281;28;19920;-72
2022/03/31 03:31:21;;;;;;;;;;;;;;;-139.48;100.00;61774.03;5018770;28;20284;-73
2022/03/31 03:34:05;;;;;;;;;;;;;;;-139.48;100.00;61774.03;5018657;28;19919;-73
2022/03/31 03:36:49;;;;;;;;;;;;;;;-139.48;100.00;61774.03;5033745;28;20419;-72
2022/03/31 03:39:34;;;;;;;;;;;;;;;-139.48;100.00;61774.03;5033321;28;20387;-72
2022/03/31 03:42:19;;;;;;;;;;;;;;;-139.48;100.00;61774.03;5018668;28;19920;-72
2022/03/31 03:45:03;;;;;;;;;;;;;;;-139.48;100.00;61774.03;5037236;28;19963;-72
2022/03/31 03:47:48;;;;;;;;;;;;;;;-139.48;100.00;61774.03;5022689;28;20277;-72
2022/03/31 03:50:33;;;;;;;;;;;;;;;-139.48;100.00;61774.03;5022424;28;19924;-72
2022/03/31 03:53:17;;;;;;;;;;;;;;;-139.48;100.00;61774.03;5022159;28;19975;-72
2022/03/31 03:56:01;;;;;;;;;;;;;;;-139.48;100.00;61774.03;5037200;28;19920;-72
2022/03/31 03:58:45;;;;;;;;;;;;;;;-139.48;100.00;61774.03;5037132;28;20032;-72
2022/03/31 04:01:29;;;;;;;;;;;;;;;-139.48;100.00;61774.03;5037114;28;19963;-72
2022/03/31 04:04:13;;;;;;;;;;;;;;;-139.48;100.00;61774.03;5008042;28;19920;-72
2022/03/31 04:06:57;;;;;;;;;;;;;;;-139.48;100.00;61774.03;5021715;28;19962;-72
2022/03/31 04:09:41;;;;;;;;;;;;;;;-139.48;100.00;61774.03;5022057;28;20430;-72
2022/03/31 04:12:25;;;;;;;;;;;;;;;-139.48;100.00;61774.03;5036912;28;19959;-72
2022/03/31 04:15:09;;;;;;;;;;;;;;;-139.48;100.00;61774.03;5021778;28;19963;-72
2022/03/31 04:17:54;;;;;;;;;;;;;;;-139.48;100.00;61774.03;5021581;28;19924;-72
2022/03/31 04:20:38;;;;;;;;;;;;;;;-139.48;100.00;61774.03;5036744;28;19923;-73
2022/03/31 04:23:22;;;;;;;;;;;;;;;-139.48;100.00;61774.03;5036386;28;20280;-72
2022/03/31 04:26:06;;;;;;;;;;;;;;;-139.48;100.00;61774.03;5021712;28;19955;-73
2022/03/31 04:28:49;;;;;;;;;;;;;;;-139.48;100.00;61774.03;5021812;28;19920;-73
2022/03/31 04:31:33;;;;;;;;;;;;;;;-139.48;100.00;61774.03;5021824;28;19919;-72
2022/03/31 04:34:19;;;;;;;;;;;;;;;-139.48;100.00;61774.03;5021157;28;20339;-72
2022/03/31 04:37:03;;;;;;;;;;;;;;;-139.48;100.00;61774.03;5007587;28;19920;-72
2022/03/31 04:39:47;;;;;;;;;;;;;;;-139.48;100.00;61774.03;5007424;28;19923;-72
2022/03/31 04:42:31;;;;;;;;;;;;;;;-139.48;100.00;61774.03;5007468;28;20345;-72
2022/03/31 04:45:15;;;;;;;;;;;;;;;-139.48;100.00;61774.03;5007793;28;19920;-72
2022/03/31 04:47:59;;;;;;;;;;;;;;;-139.48;100.00;61774.03;5021284;28;20276;-72
2022/03/31 04:50:42;;;;;;;;;;;;;;;-139.48;100.00;61774.03;5036121;28;19924;-72
2022/03/31 04:53:26;;;;;;;;;;;;;;;-139.48;100.00;61774.03;5020800;28;19919;-72
2022/03/31 04:56:10;;;;;;;;;;;;;;;-139.48;100.00;61774.03;5020859;28;19920;-72
2022/03/31 04:58:54;;;;;;;;;;;;;;;-139.48;100.00;61774.03;5020785;28;20376;-72
2022/03/31 05:01:38;;;;;;;;;;;;;;;-139.48;100.00;61774.03;5035989;28;19959;-72
2022/03/31 05:04:22;;;;;;;;;;;;;;;-139.48;100.00;61774.03;5020781;28;19920;-73
2022/03/31 05:07:06;;;;;;;;;;;;;;;-139.48;100.00;61774.03;5035603;28;19936;-72
2022/03/31 05:09:50;;;;;;;;;;;;;;;-139.48;100.00;61774.03;5020769;28;19927;-72
2022/03/31 05:12:34;;;;;;;;;;;;;;;-139.48;100.00;61774.03;5020702;28;19935;-72
2022/03/31 05:15:18;;;;;;;;;;;;;;;-139.48;100.00;61774.03;5007195;28;20341;-72
2022/03/31 05:18:02;;;;;;;;;;;;;;;-139.48;100.00;61774.03;5036003;28;19935;-72
2022/03/31 05:20:45;;;;;;;;;;;;;;;-139.48;100.00;61774.03;5020553;28;20055;-72
2022/03/31 05:23:29;;;;;;;;;;;;;;;-139.48;100.00;61774.03;5020233;28;19920;-72
2022/03/31 05:26:13;;;;;;;;;;;;;;;-139.48;100.00;61774.03;5020227;28;19920;-73
2022/03/31 05:28:57;;;;;;;;;;;;;;;-139.48;100.00;61774.03;5035288;28;20300;-73
2022/03/31 05:31:41;;;;;;;;;;;;;;;-139.48;100.00;61774.03;5020462;28;19919;-73
2022/03/31 05:34:25;;;;;;;;;;;;;;;-139.48;100.00;61774.03;5035025;28;20281;-73
2022/03/31 05:37:09;;;;;;;;;;;;;;;-139.48;100.00;61774.03;5020073;28;19920;-72
2022/03/31 05:39:53;;;;;;;;;;;;;;;-139.48;100.00;61774.03;5034973;28;19920;-72
2022/03/31 05:42:37;;;;;;;;;;;;;;;-139.48;100.00;61774.03;5034954;28;20023;-73
2022/03/31 05:45:21;;;;;;;;;;;;;;;-139.48;100.00;61774.03;5006451;28;20418;-72
2022/03/31 05:48:05;;;;;;;;;;;;;;;-139.48;100.00;61774.03;5005957;28;19919;-72
2022/03/31 05:50:49;;;;;;;;;;;;;;;-139.48;100.00;61774.03;5019723;28;19940;-72
2022/03/31 05:53:33;;;;;;;;;;;;;;;-139.48;100.00;61774.03;5034916;28;19920;-72
2022/03/31 05:56:18;;;;;;;;;;;;;;;-139.48;100.00;61774.03;5019799;28;19923;-72
2022/03/31 05:59:02;;;;;;;;;;;;;;;-139.48;100.00;61774.03;5019856;28;20285;-73
2022/03/31 06:01:46;;;;;;;;;;;;;;;-139.48;100.00;61774.03;5005702;28;19919;-73
2022/03/31 06:04:30;;;;;;;;;;;;;;;-139.48;100.00;61774.03;5034523;28;19967;-73
2022/03/31 06:07:14;;;;;;;;;;;;;;;-139.48;100.00;61774.03;5004908;28;19963;-72
2022/03/31 06:09:57;;;;;;;;;;;;;;;-139.48;100.00;61774.03;5034515;28;20412;-73
2022/03/31 06:12:41;;;;;;;;;;;;;;;-139.48;100.00;61774.03;5019580;28;20383;-72
2022/03/31 06:15:25;;;;;;;;;;;;;;;-139.48;100.00;61774.03;5019582;28;19924;-72
2022/03/31 06:18:09;;;;;;;;;;;;;;;-139.48;100.00;61774.03;5034575;28;20007;-72
2022/03/31 06:20:53;;;;;;;;;;;;;;;-139.48;100.00;61774.03;5034279;28;19920;-72
2022/03/31 06:23:37;;;;;;;;;;;;;;;-139.48;100.00;61774.03;5019252;28;20414;-72
2022/03/31 06:26:21;;;;;;;;;;;;;;;-139.48;100.00;61774.03;5019196;28;19919;-72
2022/03/31 06:29:05;;;;;;;;;;;;;;;-139.48;100.00;61774.03;5019366;28;19924;-72
2022/03/31 06:31:50;;;;;;;;;;;;;;;-139.48;100.00;61774.03;5019467;28;19959;-72
2022/03/31 06:34:36;;;;;;;;;;;;;;;-139.48;100.00;61774.03;5019196;28;20284;-72
2022/03/31 06:37:20;;;;;;;;;;;;;;;-139.48;100.00;61774.03;5019563;28;20412;-72
2022/03/31 06:40:05;;;;;;;;;;;;;;;-139.48;100.00;61774.03;5033937;28;19920;-72
2022/03/31 06:42:50;;;;;;;;;;;;;;;-139.48;100.00;61774.03;5034101;28;20276;-72
2022/03/31 06:45:34;;;;;;;;;;;;;;;-139.48;100.00;61774.03;5019126;28;19920;-72
2022/03/31 06:48:18;;;;;;;;;;;;;;;-139.48;100.00;61774.03;5033814;28;19935;-72
2022/03/31 06:51:02;;;;;;;;;;;;;;;-139.48;100.00;61774.03;5033992;28;19923;-72
2022/03/31 06:53:46;;;;;;;;;;;;;;;-139.48;100.00;61774.03;5018868;28;19919;-72
2022/03/31 06:56:30;;;;;;;;;;;;;;;-139.48;100.00;61774.03;5018773;28;20006;-72
2022/03/31 06:59:14;;;;;;;;;;;;;;;-139.48;100.00;61774.03;5005510;28;19920;-72
2022/03/31 07:01:58;;;;;;;;;;;;;;;-139.48;100.00;61774.03;5034070;28;20020;-72
2022/03/31 07:04:42;;;;;;;;;;;;;;;-139.48;100.00;61774.03;5033629;28;19920;-72
2022/03/31 07:07:26;;;;;;;;;;;;;;;-139.48;100.00;61774.03;5019004;28;19962;-72
2022/03/31 07:10:11;;;;;;;;;;;;;;;-139.48;100.00;61774.03;5033843;28;19924;-72
2022/03/31 07:12:55;;;;;;;;;;;;;;;-139.48;100.00;61774.03;5018844;28;19936;-72
2022/03/31 07:15:39;;;;;;;;;;;;;;;-139.48;100.00;61774.03;5033808;28;19920;-72
2022/03/31 07:18:23;;;;;;;;;;;;;;;-139.48;100.00;61774.03;5021737;28;20357;-72
2022/03/31 07:21:07;;;;;;;;;;;;;;;-139.48;100.00;61774.03;5037582;28;19924;-72
2022/03/31 07:23:51;;;;;;;;;;;;;;;-139.48;100.00;61774.03;5037456;28;19924;-72
2022/03/31 07:26:35;;;;;;;;;;;;;;;-139.48;100.00;61774.03;5037530;28;19920;-72
2022/03/31 07:29:18;;;;;;;;;;;;;;;-139.48;100.00;61774.03;5037318;28;19971;-72
2022/03/31 07:32:03;;;;;;;;;;;;;;;-139.48;100.00;61774.03;5022659;28;19919;-72
2022/03/31 07:34:46;;;;;;;;;;;;;;;-139.48;100.00;61774.03;5022239;28;20054;-72
2022/03/31 07:37:30;;;;;;;;;;;;;;;-139.48;100.00;61774.03;5037394;28;19920;-72
2022/03/31 07:40:15;;;;;;;;;;;;;;;-139.48;100.00;61774.03;5022246;28;19971;-71
2022/03/31 07:43:01;;;;;;;;;;;;;;;-139.48;100.00;61774.03;5037361;28;20422;-72
2022/03/31 07:45:46;;;;;;;;;;;;;;;-139.48;100.00;61774.03;5022770;28;19959;-72
2022/03/31 07:48:30;;;;;;;;;;;;;;;-139.48;100.00;61774.03;5037643;28;19959;-72
2022/03/31 07:51:14;;;;;;;;;;;;;;;-139.48;100.00;61774.03;5021975;28;19924;-72
2022/03/31 07:53:58;;;;;;;;;;;;;;;-139.48;100.00;61774.03;5007983;28;19967;-72
2022/03/31 07:56:42;;;;;;;;;;;;;;;-139.48;100.00;61774.03;5036816;28;19920;-72
2022/03/31 07:59:32;;;;;;;;;;;;;;;-139.48;100.00;61774.03;5037093;28;19959;-72
2022/03/31 08:02:16;;;;;;;;;;;;;;;-139.48;100.00;61774.03;5022873;28;19920;-72
2022/03/31 08:05:01;;;;;;;;;;;;;;;-139.48;100.00;61774.03;5037007;28;19967;-72
2022/03/31 08:07:44;;;;;;;;;;;;;;;-139.48;100.00;61774.03;5036985;28;20023;-72
2022/03/31 08:10:28;;;;;;;;;;;;;;;-139.48;100.00;61774.03;5036702;28;19971;-72
2022/03/31 08:13:12;;;;;;;;;;;;;;;-139.48;100.00;61774.03;5021697;28;20450;-72
2022/03/31 08:15:57;;;;;;;;;;;;;;;-139.48;100.00;61774.03;5021831;28;19936;-72
2022/03/31 08:18:41;;;;;;;;;;;;;;;-139.48;100.00;61774.03;5021967;28;20406;-72
2022/03/31 08:21:25;;;;;;;;;;;;;;;-139.48;100.00;61774.03;5021861;28;19967;-72
2022/03/31 08:24:09;;;;;;;;;;;;;;;-139.48;100.00;61774.03;5021433;28;20399;-72
2022/03/31 08:26:53;;;;;;;;;;;;;;;-139.48;100.00;61774.03;5021909;28;19920;-72
2022/03/31 08:29:39;;;;;;;;;;;;;;;-139.48;100.00;61774.03;5020500;28;19966;-72
2022/03/31 08:32:23;;;;;;;;;;;;;;;-139.48;100.00;61774.03;5022210;28;19920;-72
2022/03/31 08:35:07;;;;;;;;;;;;;;;-139.48;100.00;61774.03;5021348;28;19923;-72
2022/03/31 08:37:51;;;;;;;;;;;;;;;-139.48;100.00;61774.03;5021456;28;19923;-72
2022/03/31 08:40:36;;;;;;;;;;;;;;;-139.48;100.00;61774.03;5036155;28;19935;-72
2022/03/31 08:43:20;;;;;;;;;;;;;;;-139.48;100.00;61774.03;5036293;28;19962;-72
2022/03/31 08:46:07;;;;;;;;;;;;;;;-139.48;100.00;61774.03;5021375;28;20016;-72
2022/03/31 08:48:51;;;;;;;;;;;;;;;-139.48;100.00;61774.03;5020876;28;20009;-72
2022/03/31 08:51:35;;;;;;;;;;;;;;;-139.48;100.00;61774.03;5021168;28;19920;-72
2022/03/31 08:54:18;;;;;;;;;;;;;;;-139.48;100.00;61774.03;5036087;28;20031;-72
2022/03/31 08:57:04;;;;;;;;;;;;;;;-139.48;100.00;61774.03;5007242;28;19919;-72
2022/03/31 08:59:47;;;;;;;;;;;;;;;-139.48;100.00;61774.03;5007323;28;19966;-72
2022/03/31 09:02:31;;;;;;;;;;;;;;;-139.48;100.00;61774.03;5035735;28;19919;-72
2022/03/31 09:05:15;;;;;;;;;;;;;;;-139.48;100.00;61774.03;5036218;28;19920;-72
2022/03/31 09:08:00;;;;;;;;;;;;;;;-139.48;100.00;61774.03;5006695;28;20011;-72
2022/03/31 09:10:47;;;;;;;;;;;;;;;-139.48;100.00;61774.03;5020500;28;20061;-72
2022/03/31 09:13:34;;;;;;;;;;;;;;;-139.48;100.00;61774.03;5021547;28;19939;-72
2022/03/31 09:16:18;;;;;;;;;;;;;;;-139.48;100.00;61774.03;5021182;28;20285;-72
2022/03/31 09:19:03;;;;;;;;;;;;;;;-139.48;100.00;61774.03;5006548;28;19920;-72
2022/03/31 09:21:51;;;;;;;;;;;;;;;-139.48;100.00;61774.03;5035292;28;19920;-72
2022/03/31 09:24:35;;;;;;;;;;;;;;;-139.48;100.00;61774.03;5020694;28;19966;-72
2022/03/31 09:27:24;;;;;;;;;;;;;;;-139.48;100.00;61774.03;5020513;28;19920;-73
2022/03/31 09:30:08;;;;;;;;;;;;;;;-139.48;100.00;61774.03;5020391;28;20288;-72
2022/03/31 09:32:52;;;;;;;;;;;;;;;-139.48;100.00;61774.03;5035038;28;20015;-71
2022/03/31 09:35:36;;;;;;;;;;;;;;;-139.48;100.00;61774.03;5020038;28;19962;-72
2022/03/31 09:38:20;;;;;;;;;;;;;;;-139.48;100.00;61774.03;5019983;28;19920;-72
2022/03/31 09:41:15;;;;;;;;;;;;;;;-139.48;100.00;61774.03;5034173;28;19958;-72
2022/03/31 09:44:00;;;;;;;;;;;;;;;-139.48;100.00;61774.03;5020171;28;19967;-72
2022/03/31 09:46:44;;;;;;;;;;;;;;;-139.48;100.00;61774.03;5006337;28;19979;-72
2022/03/31 09:49:28;;;;;;;;;;;;;;;-139.48;100.00;61774.03;5019995;28;20284;-72
2022/03/31 09:52:12;;;;;;;;;;;;;;;-139.48;100.00;61774.03;5034933;28;20324;-72
2022/03/31 09:54:56;;;;;;;;;;;;;;;-139.48;100.00;61774.03;5034899;28;20008;-72
2022/03/31 09:57:40;;;;;;;;;;;;;;;-139.48;100.00;61774.03;5019627;28;20383;-72
2022/03/31 10:00:24;;;;;;;;;;;;;;;-139.48;100.00;61774.03;5034888;28;19919;-72
2022/03/31 10:03:07;;;;;;;;;;;;;;;-139.48;100.00;61774.03;5034525;28;19963;-72
2022/03/31 10:05:51;;;;;;;;;;;;;;;-139.48;100.00;61774.03;5019881;28;20434;-72
2022/03/31 10:08:39;;;;;;;;;;;;;;;-139.48;100.00;61774.03;5019522;28;20386;-72
2022/03/31 10:11:24;;;;;;;;;;;;;;;-139.48;100.00;61774.03;5020063;28;19923;-72
2022/03/31 10:14:26;;;;;;;;;;;;;;;-139.48;100.00;61774.03;5019250;28;19963;-72
2022/03/31 10:17:10;;;;;;;;;;;;;;;-139.48;100.00;61774.03;5034446;28;19958;-70
2022/03/31 10:20:05;;;;;;;;;;;;;;;-139.48;100.00;61774.03;5034439;28;19959;-72
2022/03/31 10:25:58;;;;;;;;;;;;;;;-139.48;100.00;61774.03;5034430;28;19963;-72
2022/03/31 10:28:42;;;;;;;;;;;;;;;-139.48;100.00;61774.03;5019314;28;20003;-72
2022/03/31 10:31:36;;;;;;;;;;;;;;;-139.48;100.00;61774.03;5019438;28;20114;-71
2022/03/31 10:34:20;;;;;;;;;;;;;;;-139.48;100.00;61774.03;5019638;28;19958;-72
2022/03/31 10:37:05;;;;;;;;;;;;;;;-139.48;100.00;61774.03;5034008;28;19920;-71
2022/03/31 10:39:50;;;;;;;;;;;;;;;-139.48;100.00;61774.03;5034248;28;20004;-71
2022/03/31 10:42:34;;;;;;;;;;;;;;;-139.48;100.00;61774.03;5019247;28;19920;-72
2022/03/31 10:45:18;;;;;;;;;;;;;;;-139.48;100.00;61774.03;5019077;28;19923;-71
2022/03/31 10:48:11;;;;;;;;;;;;;;;-139.48;100.00;61774.03;5019240;28;19979;-72
2022/03/31 10:51:09;;;;;;;;;;;;;;;-139.48;100.00;61774.03;5019087;28;19924;-71
2022/03/31 10:53:53;;;;;;;;;;;;;;;-139.48;100.00;61774.03;5033847;28;19920;-71
2022/03/31 10:56:38;;;;;;;;;;;;;;;-139.48;100.00;61774.03;5018806;28;19924;-71
2022/03/31 10:59:22;;;;;;;;;;;;;;;-139.48;100.00;61774.03;5018927;28;20384;-72
2022/03/31 11:02:08;;;;;;;;;;;;;;;-139.48;100.00;61774.03;5019137;28;19920;-71
2022/03/31 11:04:53;;;;;;;;;;;;;;;-139.48;100.00;61774.03;5018994;28;19920;-71
2022/03/31 11:07:37;;;;;;;;;;;;;;;-139.48;100.00;61774.03;5019206;28;19920;-72
2022/03/31 11:10:21;;;;;;;;;;;;;;;-139.48;100.00;61774.03;5018992;28;19924;-71
2022/03/31 11:13:05;;;;;;;;;;;;;;;-139.48;100.00;61774.03;5018701;28;19920;-72
2022/03/31 11:15:56;;;;;;;;;;;;;;;-139.48;100.00;61774.03;5033528;28;19920;-72
2022/03/31 11:18:40;;;;;;;;;;;;;;;-139.48;100.00;61774.03;5033468;28;20380;-71
2022/03/31 11:21:24;;;;;;;;;;;;;;;-139.48;100.00;61774.03;5018823;28;19920;-71
2022/03/31 11:24:08;;;;;;;;;;;;;;;11.22;100.00;99305.38;5033360;28;20395;-71
2022/03/31 11:26:54;;;;;;;;;;;;;;;10.46;100.00;98414.31;5033538;28;19920;-71
2022/03/31 11:29:38;;;;;;;;;;;;;;;10.45;87.33;98410.00;5033612;28;20020;-72
2022/03/31 11:32:28;;;;;;;;;;;;;;;10.50;100.00;98412.94;5018277;28;19972;-72
2022/03/31 11:35:16;;;;;;;;;;;;;;;10.61;100.00;98419.59;5018684;28;19919;-71
2022/03/31 11:38:01;;;;;;;;;;;;;;;10.66;100.00;98412.69;5018629;28;19990;-71
2022/03/31 11:40:46;;;;;;;;;;;;;;;10.60;100.00;98408.16;5018687;28;19920;-72
2022/03/31 11:43:31;;;;;;;;;;;;;;;10.57;100.00;98413.81;5018298;28;19958;-72
2022/03/31 11:46:15;;;;;;;;;;;;;;;10.63;100.00;98407.75;5018303;28;19920;-72
2022/03/31 11:48:58;;;;;;;;;;;;;;;10.71;100.00;98399.66;5005004;28;20012;-71
2022/03/31 11:51:56;;;;;;;;;;;;;;;10.75;100.00;98406.22;5033239;28;19959;-71
2022/03/31 11:54:41;;;;;;;;;;;;;;;10.75;100.00;98411.56;5033241;28;20287;-72
2022/03/31 11:57:25;;;;;;;;;;;;;;;10.63;100.00;98401.63;5018658;28;19919;-71
2022/03/31 12:00:09;;;;;;;;;;;;;;;10.74;100.00;98409.91;5033377;28;19968;-71
2022/03/31 12:02:54;;;;;;;;;;;;;;;10.75;100.00;98398.25;5018302;28;20355;-71
2022/03/31 12:05:38;;;;;;;;;;;;;;;10.91;100.00;98400.66;5021503;28;19962;-71
2022/03/31 12:08:22;;;;;;;;;;;;;;;10.66;100.00;98406.56;5036791;28;19920;-72
2022/03/31 12:11:05;;;;;;;;;;;;;;;10.64;100.00;98409.41;5021688;28;19924;-72
2022/03/31 12:13:50;;;;;;;;;;;;;;;10.54;100.00;98398.22;5021527;28;20004;-71
2022/03/31 12:16:41;;;;;;;;;;;;;;;10.53;100.00;98398.44;5021948;28;19924;-72
2022/03/31 12:19:25;;;;;;;;;;;;;;;10.41;100.00;98398.09;5036699;28;19920;-71
2022/03/31 12:22:09;;;;;;;;;;;;;;;10.31;100.00;98402.91;5021665;28;19935;-72
2022/03/31 12:24:53;;;;;;;;;;;;;;;10.27;100.00;98396.31;5008137;28;19920;-72
2022/03/31 12:27:46;;;;;;;;;;;;;;;10.25;100.00;98398.31;5036663;28;20430;-72
2022/03/31 12:30:47;;;;;;;;;;;;;;;10.17;100.00;98394.09;5036254;28;19923;-72
2022/03/31 12:33:34;;;;;;;;;;;;;;;10.32;100.00;98393.88;5007748;28;19919;-72
2022/03/31 12:36:22;;;;;;;;;;;;;;;10.30;100.00;98390.59;5036859;28;19924;-72
2022/03/31 12:39:06;;;;;;;;;;;;;;;10.36;100.00;98389.00;5036345;28;19920;-72
2022/03/31 12:41:51;;;;;;;;;;;;;;;10.31;100.00;98392.25;5036108;28;19920;-72
2022/03/31 12:44:37;;;;;;;;;;;;;;;10.44;100.00;98391.56;5021052;28;19920;-72
2022/03/31 12:47:23;;;;;;;;;;;;;;;10.53;100.00;98393.09;5021097;28;19927;-72
2022/03/31 12:50:23;;;;;;;;;;;;;;;10.42;100.00;98391.75;5035938;28;20015;-72
2022/03/31 12:53:07;;;;;;;;;;;;;;;10.30;100.00;98385.28;5020797;28;19924;-72
2022/03/31 12:55:50;;;;;;;;;;;;;;;10.24;100.00;98390.53;5036083;28;20045;-72
2022/03/31 12:58:37;;;;;;;;;;;;;;;10.28;100.00;98386.47;5036004;28;20030;-72
2022/03/31 13:01:25;;;;;;;;;;;;;;;10.29;100.00;98378.28;5021003;28;19920;-72
2022/03/31 13:04:09;;;;;;;;;;;;;;;10.19;100.00;98379.59;5021270;28;20023;-71
2022/03/31 13:06:53;;;;;;;;;;;;;;;10.33;100.00;98378.75;5020715;28;20016;-72
2022/03/31 13:09:37;;;;;;;;;;;;;;;10.45;100.00;98380.72;5035937;28;19924;-72
2022/03/31 13:12:21;;;;;;;;;;;;;;;10.63;100.00;98382.97;5020747;28;19920;-71
2022/03/31 13:15:07;;;;;;;;;;;;;;;10.75;100.00;98374.25;5035223;28;19920;-72
2022/03/31 13:17:51;;;;;;;;;;;;;;;10.76;100.00;98377.75;5036055;28;20452;-72
2022/03/31 13:20:35;;;;;;;;;;;;;;;10.69;100.00;98375.03;5020984;28;19966;-72
2022/03/31 13:23:19;;;;;;;;;;;;;;;10.58;100.00;98380.88;5020521;28;19959;-72
2022/03/31 13:26:04;;;;;;;;;;;;;;;10.51;100.00;98382.63;5035576;28;19959;-72
2022/03/31 13:28:48;;;;;;;;;;;;;;;10.37;100.00;98380.00;5020516;28;19951;-72
2022/03/31 13:31:32;;;;;;;;;;;;;;;10.15;100.00;98385.47;5006687;28;20384;-72
2022/03/31 13:34:17;;;;;;;;;;;;;;;10.03;100.00;98386.97;5020357;28;20023;-72
2022/03/31 13:37:02;;;;;;;;;;;;;;;10.10;100.00;98383.38;5035614;28;19920;-72
2022/03/31 13:39:47;;;;;;;;;;;;;;;10.01;100.00;98383.66;5035151;28;19963;-72
2022/03/31 13:42:31;;;;;;;;;;;;;;;10.00;100.00;98380.13;5020544;28;19920;-72
2022/03/31 13:45:15;;;;;;;;;;;;;;;9.99;100.00;98383.00;5035246;28;20024;-72
2022/03/31 13:47:59;;;;;;;;;;;;;;;9.95;100.00;98384.38;5020150;28;20008;-72
2022/03/31 13:50:44;;;;;;;;;;;;;;;9.83;100.00;98377.88;5020176;28;20273;-72
2022/03/31 13:53:43;;;;;;;;;;;;;;;9.88;100.00;98378.16;5020515;28;19924;-72